Time;durP1;ratioP1;P1;durP2;ratioP2;P2;SDS_P1;SDS_P2;PMS_P1;PMS_P2;Temp;Humidity;BMP_temperature;BMP_pressure;BME280_temperature;BME280_humidity;BME280_pressure;Samples;Min_cycle;Max_cycle;Signal;HPM_P1;HPM_P2
2022/05/14 00:01:13;;;;;;;3.10;1.48;;;;;;;9.23;88.58;99238.16;5056879;28;20015;-66
2022/05/14 00:03:40;;;;;;;3.05;1.55;;;;;;;9.19;90.17;99238.50;5062206;28;20111;-66
2022/05/14 00:06:08;;;;;;;3.60;1.50;;;;;;;9.23;91.00;99239.00;5059022;28;20104;-66
2022/05/14 00:08:34;;;;;;;4.63;1.63;;;;;;;9.15;90.97;99239.09;5066112;28;20016;-66
2022/05/14 00:13:44;;;;;;;5.57;1.75;;;;;;;9.16;91.77;99241.59;5061331;28;20059;-66
2022/05/14 00:16:11;;;;;;;4.13;1.67;;;;;;;9.19;91.40;99238.50;5066389;28;20072;-66
2022/05/14 00:18:37;;;;;;;3.00;1.27;;;;;;;9.15;90.36;99234.53;5064012;28;20055;-66
2022/05/14 00:21:03;;;;;;;2.72;1.35;;;;;;;8.99;90.90;99242.78;5063693;28;20693;-66
2022/05/14 00:23:28;;;;;;;2.40;1.55;;;;;;;8.95;91.87;99231.50;5051646;28;20490;-66
2022/05/14 00:25:54;;;;;;;3.13;2.03;;;;;;;8.94;92.07;99234.38;5068867;28;20059;-66
2022/05/14 00:28:20;;;;;;;4.57;1.60;;;;;;;8.78;92.85;99238.91;5070830;28;20052;-66
2022/05/14 00:30:46;;;;;;;3.30;1.50;;;;;;;8.81;92.53;99243.09;5072016;28;20086;-66
2022/05/14 00:33:11;;;;;;;4.97;1.60;;;;;;;8.69;93.00;99239.97;5064761;28;20029;-66
2022/05/14 00:35:37;;;;;;;4.95;1.52;;;;;;;8.69;93.02;99233.75;5053144;28;20078;-66
2022/05/14 00:38:04;;;;;;;1.95;1.33;;;;;;;8.63;93.18;99231.78;5064762;28;20073;-66
2022/05/14 00:40:37;;;;;;;4.05;1.70;;;;;;;8.50;91.64;99233.19;5056706;28;20474;-66
2022/05/14 00:43:03;;;;;;;4.18;1.40;;;;;;;8.63;92.91;99232.59;5057665;28;20020;-66
2022/05/14 00:45:31;;;;;;;3.13;1.15;;;;;;;8.51;93.32;99234.91;5052828;28;20101;-66
2022/05/14 00:48:00;;;;;;;2.53;1.33;;;;;;;8.51;94.19;99232.19;5069021;28;20032;-66
2022/05/14 00:50:52;;;;;;;3.38;1.33;;;;;;;8.53;94.79;99232.00;5062736;28;20035;-66
2022/05/14 00:53:37;;;;;;;7.15;1.67;;;;;;;8.47;94.04;99224.66;5055521;28;20032;-66
2022/05/14 00:56:07;;;;;;;3.80;1.70;;;;;;;8.40;94.01;99229.91;5057903;28;20134;-66
2022/05/14 00:58:40;;;;;;;4.45;1.75;;;;;;;8.52;94.85;99225.78;5068364;28;20070;-66
2022/05/14 01:01:05;;;;;;;3.95;1.52;;;;;;;8.51;95.12;99229.50;5069263;28;20386;-66
2022/05/14 01:03:33;;;;;;;3.42;1.77;;;;;;;8.37;95.24;99230.22;5066283;28;20036;-66
2022/05/14 01:06:01;;;;;;;5.60;1.60;;;;;;;8.23;95.83;99217.53;5067652;28;20442;-66
2022/05/14 01:08:28;;;;;;;3.88;1.48;;;;;;;8.34;96.16;99206.31;5071748;28;20064;-66
2022/05/14 01:10:54;;;;;;;3.85;1.73;;;;;;;8.25;95.54;99215.47;5053906;28;20064;-66
2022/05/14 01:13:19;;;;;;;5.63;1.92;;;;;;;8.33;95.74;99207.31;5066472;28;20067;-66
2022/05/14 01:15:54;;;;;;;3.08;1.83;;;;;;;8.36;95.41;99220.47;5066787;28;20060;-66
2022/05/14 01:18:22;;;;;;;2.25;1.48;;;;;;;8.18;95.11;99219.91;5072062;28;20028;-66
2022/05/14 01:20:53;;;;;;;5.10;2.08;;;;;;;8.13;96.79;99217.75;5048966;28;20029;-66
2022/05/14 01:26:41;;;;;;;5.45;1.90;;;;;;;8.10;99.21;99216.25;5070073;28;20095;-66
2022/05/14 01:29:19;;;;;;;3.03;1.77;;;;;;;8.08;100.00;99220.97;5069221;28;20044;-66
2022/05/14 01:31:45;;;;;;;3.47;1.92;;;;;;;8.05;100.00;99220.50;5066760;28;20523;-66
2022/05/14 01:34:24;;;;;;;3.05;1.63;;;;;;;8.15;99.71;99231.03;5076587;28;20021;-66
2022/05/14 01:36:49;;;;;;;5.68;1.85;;;;;;;8.13;97.75;99215.88;5074922;28;20043;-66
2022/05/14 01:39:15;;;;;;;2.45;1.80;;;;;;;8.07;97.22;99230.09;5076848;28;20036;-66
2022/05/14 01:41:41;;;;;;;3.13;1.73;;;;;;;8.16;96.84;99217.38;5062130;28;20076;-66
2022/05/14 01:44:06;;;;;;;5.38;2.20;;;;;;;8.05;96.72;99228.56;5068152;28;20028;-66
2022/05/14 01:46:32;;;;;;;3.28;1.85;;;;;;;8.00;97.79;99228.28;5068478;28;20064;-66
2022/05/14 01:48:58;;;;;;;2.85;1.58;;;;;;;8.13;97.39;99225.84;5076067;28;20020;-66
2022/05/14 01:51:24;;;;;;;3.88;1.70;;;;;;;8.01;97.34;99232.63;5067710;28;20033;-66
2022/05/14 01:53:50;;;;;;;4.30;1.90;;;;;;;7.95;98.39;99225.25;5065921;28;20021;-66
2022/05/14 01:56:15;;;;;;;6.10;1.65;;;;;;;7.95;98.59;99226.09;5047107;28;20032;-66
2022/05/14 01:58:41;;;;;;;2.90;1.73;;;;;;;7.85;97.93;99222.78;5075946;28;20018;-66
2022/05/14 02:01:17;;;;;;;5.10;1.50;;;;;;;7.94;99.57;99219.03;5072878;28;20478;-66
2022/05/14 02:03:47;;;;;;;3.03;1.70;;;;;;;7.91;99.61;99216.66;5069773;28;20028;-66
2022/05/14 02:06:13;;;;;;;4.93;1.80;;;;;;;7.88;99.10;99214.34;5060846;28;20027;-66
2022/05/14 02:08:40;;;;;;;5.07;1.83;;;;;;;7.72;98.74;99220.63;5075188;28;20028;-66
2022/05/14 02:11:07;;;;;;;4.30;1.85;;;;;;;7.82;98.75;99220.44;5070310;28;20054;-66
2022/05/14 02:13:33;;;;;;;2.10;1.67;;;;;;;7.58;97.38;99208.75;5058570;28;20025;-66
2022/05/14 02:15:58;;;;;;;2.78;1.92;;;;;;;7.58;98.00;99210.59;5065999;28;20035;-66
2022/05/14 02:18:24;;;;;;;5.80;2.00;;;;;;;7.49;97.97;99217.84;5060625;28;20029;-66
2022/05/14 02:20:49;;;;;;;6.13;1.98;;;;;;;7.36;99.17;99222.94;5053970;28;20113;-66
2022/05/14 02:23:15;;;;;;;3.08;2.10;;;;;;;7.44;99.94;99217.53;5063238;28;20098;-66
2022/05/14 02:25:41;;;;;;;8.15;2.67;;;;;;;7.42;100.00;99215.03;5074669;28;20017;-66
2022/05/14 02:28:07;;;;;;;5.85;1.90;;;;;;;7.42;100.00;99215.03;5065771;28;20031;-66
2022/05/14 02:30:32;;;;;;;5.00;2.10;;;;;;;7.32;100.00;99208.16;5066268;28;20028;-66
2022/05/14 02:32:58;;;;;;;7.47;2.50;;;;;;;7.25;100.00;99216.06;5060284;28;20033;-66
2022/05/14 02:35:23;;;;;;;5.32;2.25;;;;;;;7.18;100.00;99207.88;5054756;28;20036;-67
2022/05/14 02:37:48;;;;;;;8.82;2.30;;;;;;;7.15;100.00;99204.66;5055264;28;20044;-66
2022/05/14 02:40:14;;;;;;;4.22;2.30;;;;;;;7.17;100.00;99219.63;5067206;28;20078;-66
2022/05/14 02:42:40;;;;;;;4.20;2.20;;;;;;;7.08;100.00;99219.84;5063115;28;20023;-66
2022/05/14 02:45:06;;;;;;;2.97;2.05;;;;;;;7.06;100.00;99228.06;5064242;28;20254;-66
2022/05/14 02:47:32;;;;;;;3.67;1.85;;;;;;;6.93;100.00;99223.19;5059809;28;20088;-66
2022/05/14 02:49:58;;;;;;;6.97;2.22;;;;;;;6.86;100.00;99219.50;5057933;28;20107;-66
2022/05/14 02:52:23;;;;;;;4.75;2.08;;;;;;;6.94;100.00;99224.03;5062495;28;20147;-66
2022/05/14 02:54:49;;;;;;;3.75;1.98;;;;;;;6.95;100.00;99218.50;5063908;28;20449;-66
2022/05/14 02:57:15;;;;;;;4.28;2.33;;;;;;;7.03;100.00;99226.56;5069654;28;20037;-66
2022/05/14 02:59:40;;;;;;;6.78;2.10;;;;;;;7.00;100.00;99226.06;5070446;28;20029;-66
2022/05/14 03:02:05;;;;;;;4.00;1.88;;;;;;;6.92;100.00;99229.59;5060777;28;20021;-66
2022/05/14 03:04:36;;;;;;;6.75;2.45;;;;;;;7.03;100.00;99225.72;5053899;28;20106;-66
2022/05/14 03:07:03;;;;;;;4.97;2.10;;;;;;;7.10;100.00;99224.03;5036012;28;20044;-66
2022/05/14 03:09:28;;;;;;;3.13;2.00;;;;;;;6.96;100.00;99219.31;5058081;28;20020;-66
2022/05/14 03:11:53;;;;;;;4.45;2.10;;;;;;;6.98;100.00;99234.28;5066461;28;20036;-66
2022/05/14 03:14:19;;;;;;;8.55;2.22;;;;;;;6.87;100.00;99209.59;5062694;28;20021;-66
2022/05/14 03:16:45;;;;;;;4.80;1.65;;;;;;;6.85;100.00;99222.38;5069275;28;20039;-66
2022/05/14 03:19:11;;;;;;;4.82;2.03;;;;;;;6.79;100.00;99226.59;5055280;28;20443;-66
2022/05/14 03:21:37;;;;;;;2.53;1.65;;;;;;;6.72;100.00;99214.81;5064931;28;20055;-66
2022/05/14 03:24:03;;;;;;;4.70;2.72;;;;;;;6.69;100.00;99218.69;5053048;28;20051;-66
2022/05/14 03:26:28;;;;;;;3.83;2.00;;;;;;;6.74;100.00;99220.88;5071141;28;20056;-66
2022/05/14 03:28:54;;;;;;;4.07;1.92;;;;;;;6.76;100.00;99224.25;5070052;28;20040;-67
2022/05/14 03:31:19;;;;;;;8.60;1.80;;;;;;;6.76;100.00;99235.00;5064288;28;20028;-66
2022/05/14 03:33:45;;;;;;;3.35;1.80;;;;;;;6.96;100.00;99232.78;5065170;28;20567;-67
2022/05/14 03:36:11;;;;;;;4.88;1.70;;;;;;;6.92;100.00;99234.16;5065486;28;20036;-67
2022/05/14 03:38:37;;;;;;;3.03;1.83;;;;;;;6.95;100.00;99239.19;5040337;28;20024;-67
2022/05/14 03:41:03;;;;;;;3.60;2.00;;;;;;;6.82;100.00;99239.69;5058654;28;20046;-67
2022/05/14 03:43:30;;;;;;;3.97;1.80;;;;;;;6.78;100.00;99236.47;5070771;28;20025;-67
2022/05/14 03:45:55;;;;;;;8.70;2.13;;;;;;;6.68;100.00;99234.97;5065410;28;20067;-67
2022/05/14 03:48:21;;;;;;;3.40;2.03;;;;;;;6.73;100.00;99241.53;5058299;28;20024;-67
2022/05/14 03:50:46;;;;;;;4.32;2.00;;;;;;;6.61;100.00;99237.50;5064729;28;20047;-67
2022/05/14 03:53:11;;;;;;;4.00;2.10;;;;;;;6.42;100.00;99221.66;5046510;28;20032;-67
2022/05/14 03:55:37;;;;;;;3.80;1.92;;;;;;;6.65;100.00;99236.13;5070201;28;20040;-67
2022/05/14 03:58:03;;;;;;;4.00;2.15;;;;;;;6.65;100.00;99246.88;5067119;28;20455;-67
2022/05/14 04:00:28;;;;;;;4.70;2.30;;;;;;;6.75;100.00;99239.50;5055404;28;20036;-67
2022/05/14 04:02:53;;;;;;;5.40;2.40;;;;;;;6.77;100.00;99240.19;5071887;28;20439;-67
2022/05/14 04:05:19;;;;;;;5.43;2.53;;;;;;;6.64;100.00;99215.66;5065827;28;20017;-67
2022/05/14 04:07:46;;;;;;;6.72;2.45;;;;;;;6.73;100.00;99233.47;5069093;28;20497;-67
2022/05/14 04:10:16;;;;;;;3.83;2.10;;;;;;;6.73;100.00;99230.78;5047443;28;20095;-67
2022/05/14 04:12:42;;;;;;;2.78;1.90;;;;;;;6.77;100.00;99231.28;5055855;28;20095;-67
2022/05/14 04:15:09;;;;;;;8.25;2.25;;;;;;;6.75;100.00;99226.06;5061206;28;20116;-67
2022/05/14 04:17:35;;;;;;;5.78;2.47;;;;;;;6.79;100.00;99232.78;5062226;28;20021;-67
2022/05/14 04:20:00;;;;;;;5.57;2.67;;;;;;;6.80;100.00;99237.16;5050310;28;20079;-67
2022/05/14 04:22:26;;;;;;;11.05;2.50;;;;;;;6.93;100.00;99233.13;5064800;28;20447;-66
2022/05/14 04:24:51;;;;;;;6.28;2.50;;;;;;;6.84;100.00;99220.66;5065060;28;20037;-67
2022/05/14 04:27:17;;;;;;;4.28;2.22;;;;;;;6.98;100.00;99228.06;5068376;28;20036;-67
2022/05/14 04:29:42;;;;;;;5.38;2.60;;;;;;;7.13;100.00;99231.75;5060707;28;20040;-67
2022/05/14 04:32:08;;;;;;;4.72;2.45;;;;;;;7.31;100.00;99234.25;5050977;28;20021;-67
2022/05/14 04:34:33;;;;;;;6.45;2.67;;;;;;;7.40;100.00;99225.13;5064034;28;20028;-67
2022/05/14 04:36:58;;;;;;;5.15;2.30;;;;;;;7.54;99.24;99234.31;5066790;28;20600;-66
2022/05/14 04:39:31;;;;;;;7.78;2.50;;;;;;;7.55;98.30;99235.19;5064804;28;20040;-67
2022/05/14 04:41:58;;;;;;;4.78;2.78;;;;;;;7.71;98.27;99239.69;5068193;28;20096;-67
2022/05/14 04:44:23;;;;;;;4.65;2.70;;;;;;;7.71;98.32;99234.28;5060420;28;20099;-67
2022/05/14 04:46:48;;;;;;;9.82;2.42;;;;;;;7.95;97.84;99244.94;5067490;28;20052;-67
2022/05/14 04:49:14;;;;;;;3.55;1.80;;;;;;;7.90;96.97;99233.88;5063023;28;20032;-66
2022/05/14 04:51:40;;;;;;;5.80;2.35;;;;;;;8.04;97.01;99245.75;5067081;28;20552;-73
2022/05/14 04:54:05;;;;;;;3.63;2.20;;;;;;;8.08;96.81;99245.22;5065955;28;20024;-73
2022/05/14 04:56:30;;;;;;;7.47;2.50;;;;;;;8.19;96.28;99243.97;5047105;28;20028;-73
2022/05/14 04:58:56;;;;;;;4.20;1.98;;;;;;;8.35;95.90;99246.56;5066907;28;20031;-70
2022/05/14 05:01:21;;;;;;;5.82;2.50;;;;;;;8.37;94.65;99224.84;5065438;28;20028;-73
2022/05/14 05:03:47;;;;;;;4.13;2.33;;;;;;;8.70;93.50;99255.16;5061401;28;20040;-73
2022/05/14 05:06:14;;;;;;;2.90;2.05;;;;;;;8.83;93.37;99256.38;5050530;28;20024;-73
2022/05/14 05:08:40;;;;;;;10.18;2.15;;;;;;;8.95;91.51;99234.19;5066980;28;20028;-74
2022/05/14 05:11:06;;;;;;;5.00;2.10;;;;;;;9.24;91.03;99256.88;5072193;28;20028;-74
2022/05/14 05:13:32;;;;;;;9.25;2.30;;;;;;;9.38;90.64;99245.25;5064320;28;20078;-74
2022/05/14 05:15:58;;;;;;;7.30;1.98;;;;;;;9.59;90.70;99251.81;5040181;28;20044;-71
2022/05/14 05:18:23;;;;;;;6.82;2.50;;;;;;;9.48;91.04;99200.91;5103116;22;21131;-74
2022/05/14 05:20:49;;;;;;;4.95;2.47;;;;;;;9.74;87.14;99224.75;5063668;28;20949;-74
2022/05/14 05:23:18;;;;;;;11.23;2.80;;;;;;;10.13;85.76;99247.91;5067956;28;20016;-74
2022/05/14 05:25:44;;;;;;;8.35;2.55;;;;;;;10.22;84.92;99261.16;5068305;28;20024;-72
2022/05/14 05:28:10;;;;;;;9.35;2.45;;;;;;;10.49;84.26;99258.78;5067158;28;20021;-66
2022/05/14 05:30:35;;;;;;;3.55;2.03;;;;;;;10.62;82.52;99248.09;5091245;28;20354;-65
2022/05/14 05:33:01;;;;;;;12.13;3.55;;;;;;;10.86;81.21;99262.25;5087886;28;20456;-65
2022/05/14 05:35:27;;;;;;;3.85;2.10;;;;;;;10.81;80.40;99241.19;5085501;28;20021;-65
2022/05/14 05:37:52;;;;;;;4.75;1.90;;;;;;;11.02;80.07;99236.78;5091412;28;20047;-66
2022/05/14 05:40:18;;;;;;;8.38;2.33;;;;;;;11.40;81.93;99258.97;5090957;28;20481;-65
2022/05/14 05:42:44;;;;;;;5.72;2.40;;;;;;;11.74;80.08;99257.31;5083423;28;20046;-66
2022/05/14 05:45:12;;;;;;;5.40;2.30;;;;;;;12.02;77.06;99255.38;5089527;28;20051;-66
2022/05/14 05:47:38;;;;;;;5.95;1.92;;;;;;;12.19;76.92;99261.31;5085063;28;20016;-67
2022/05/14 05:50:04;;;;;;;5.88;2.58;;;;;;;12.27;75.63;99228.56;5087581;28;20035;-66
2022/05/14 05:52:32;;;;;;;4.55;2.00;;;;;;;12.22;74.71;99220.22;5092339;28;20035;-65
2022/05/14 05:57:41;;;;;;;3.10;1.63;;;;;;;12.79;71.96;99249.78;5086853;28;20059;-72
2022/05/14 06:00:14;;;;;;;3.80;1.92;;;;;;;12.76;70.28;99229.31;5093106;28;20474;-64
2022/05/14 06:02:39;;;;;;;4.05;2.13;;;;;;;13.22;69.60;99243.94;5090258;28;20029;-66
2022/05/14 06:05:05;;;;;;;4.50;1.70;;;;;;;13.33;69.95;99217.00;5077016;28;20491;-68
2022/05/14 06:07:32;;;;;;;4.63;1.80;;;;;;;13.86;69.78;99253.28;5091534;28;20045;-67
2022/05/14 06:09:57;;;;;;;5.93;2.15;;;;;;;14.07;68.85;99258.47;5091602;28;20427;-67
2022/05/14 06:12:23;;;;;;;2.88;1.55;;;;;;;14.18;68.65;99237.91;5091366;28;20028;-68
2022/05/14 06:14:49;;;;;;;4.65;2.42;;;;;;;14.52;67.45;99268.53;5085841;28;20055;-68
2022/05/14 06:17:14;;;;;;;5.60;2.22;;;;;;;14.68;66.51;99257.16;5094282;28;20042;-68
2022/05/14 06:19:40;;;;;;;3.17;1.80;;;;;;;15.21;65.10;99259.47;5091892;28;20481;-67
2022/05/14 06:22:05;;;;;;;5.15;2.20;;;;;;;15.71;65.32;99262.19;5092608;28;20028;-68
2022/05/14 06:24:31;;;;;;;7.78;2.17;;;;;;;16.33;64.31;99267.59;5088015;28;20036;-68
2022/05/14 06:26:56;;;;;;;4.30;1.65;;;;;;;17.08;60.91;99261.72;5094090;28;20047;-67
2022/05/14 06:29:22;;;;;;;4.13;1.77;;;;;;;17.93;58.84;99259.66;5094717;28;20103;-67
2022/05/14 06:31:47;;;;;;;7.53;2.00;;;;;;;19.05;54.20;99250.94;5092373;28;20032;-68
2022/05/14 06:34:13;;;;;;;3.53;1.50;;;;;;;20.63;50.65;99247.97;5092418;28;20039;-69
2022/05/14 06:36:38;;;;;;;5.32;1.80;;;;;;;22.37;46.24;99255.66;5092605;28;20020;-68
2022/05/14 06:39:03;;;;;;;3.15;1.50;;;;;;;24.12;42.33;99245.53;5094402;28;20475;-67
2022/05/14 06:41:30;;;;;;;3.97;1.60;;;;;;;25.66;38.32;99249.03;5092362;28;20494;-67
2022/05/14 06:43:56;;;;;;;4.70;1.77;;;;;;;26.88;36.49;99246.78;5091692;28;20020;-69
2022/05/14 06:46:21;;;;;;;5.30;1.58;;;;;;;27.06;33.98;99236.78;5092319;28;20027;-67
2022/05/14 06:48:47;;;;;;;3.97;1.30;;;;;;;27.04;32.70;99246.53;5093091;28;20051;-65
2022/05/14 06:51:19;;;;;;;5.07;1.60;;;;;;;27.95;31.96;99243.34;5091072;28;20062;-66
2022/05/14 06:53:45;;;;;;;4.40;1.30;;;;;;;28.99;30.39;99238.09;5087740;28;20028;-67
2022/05/14 06:56:13;;;;;;;6.07;1.40;;;;;;;29.68;28.18;99258.16;5089946;28;20031;-62
2022/05/14 06:58:40;;;;;;;4.38;1.40;;;;;;;29.51;28.90;99254.41;5084522;28;20027;-63
2022/05/14 07:01:07;;;;;;;4.38;1.30;;;;;;;31.28;26.07;99245.94;5087804;28;20032;-63
2022/05/14 07:06:40;;;;;;;;;;;;;;;30.90;26.48;99241.84;5087717;28;20027;-62
2022/05/14 07:09:27;;;;;;;4.40;0.90;;;;;;;30.62;26.63;99244.09;5070708;28;19947;-74
2022/05/14 07:11:59;;;;;;;6.13;1.30;;;;;;;31.44;26.23;99238.75;5082925;28;20069;-72
2022/05/14 07:14:26;;;;;;;3.30;1.00;;;;;;;30.77;27.03;99251.19;5091133;28;20028;-71
2022/05/14 07:16:53;;;;;;;2.72;1.15;;;;;;;30.26;26.57;99245.16;5091260;28;20377;-72
2022/05/14 07:19:18;;;;;;;2.13;1.27;;;;;;;29.45;27.64;99250.94;5088148;28;20081;-73
2022/05/14 07:21:46;;;;;;;3.03;1.33;;;;;;;30.42;26.61;99236.31;5088983;28;20024;-73
2022/05/14 07:24:21;;;;;;;3.50;1.20;;;;;;;30.86;26.13;99248.41;5089590;28;20085;-71
2022/05/14 07:26:49;;;;;;;3.22;1.10;;;;;;;31.45;24.88;99254.38;5089973;28;20078;-74
2022/05/14 07:29:17;;;;;;;5.90;1.05;;;;;;;30.99;25.36;99258.63;5087569;28;20054;-74
2022/05/14 07:31:42;;;;;;;2.83;0.90;;;;;;;31.06;25.08;99236.59;5087162;28;20039;-73
2022/05/14 07:34:08;;;;;;;3.60;0.90;;;;;;;31.84;24.46;99250.47;5084887;28;20651;-73
2022/05/14 07:36:40;;;;;;;4.10;1.10;;;;;;;30.96;24.91;99250.91;5091536;28;20034;-73
2022/05/14 07:39:05;;;;;;;2.50;0.65;;;;;;;31.84;24.12;99235.69;5086041;28;20024;-74
2022/05/14 07:41:33;;;;;;;3.40;0.85;;;;;;;33.13;23.95;99250.13;5082378;28;20035;-75
2022/05/14 07:44:01;;;;;;;2.97;0.88;;;;;;;33.17;22.49;99225.88;5092084;28;20024;-75
2022/05/14 07:46:34;;;;;;;5.78;1.15;;;;;;;33.35;22.38;99250.94;5090193;28;20633;-70
2022/05/14 07:49:01;;;;;;;5.68;0.98;;;;;;;33.80;23.19;99241.75;5071114;28;20093;-69
2022/05/14 07:51:27;;;;;;;5.03;0.80;;;;;;;33.88;22.49;99246.47;5091684;28;20020;-71
2022/05/14 07:53:53;;;;;;;3.97;0.90;;;;;;;33.54;23.18;99248.47;5089618;28;20497;-71
2022/05/14 07:56:19;;;;;;;2.92;1.00;;;;;;;32.95;23.44;99229.81;5088087;28;20056;-74
2022/05/14 07:58:46;;;;;;;2.35;1.00;;;;;;;33.38;23.41;99248.28;5092386;28;20091;-72
2022/05/14 08:01:12;;;;;;;2.42;1.00;;;;;;;33.97;22.60;99237.91;5100198;28;20031;-71
2022/05/14 08:03:37;;;;;;;1.38;0.73;;;;;;;33.94;22.24;99244.22;5084761;28;20028;-74
2022/05/14 08:06:03;;;;;;;5.45;1.00;;;;;;;34.86;22.08;99245.66;5091657;28;20441;-67
2022/05/14 08:08:29;;;;;;;3.75;1.70;;;;;;;35.98;20.55;99251.28;5087375;28;20042;-67
2022/05/14 08:10:55;;;;;;;5.60;1.70;;;;;;;35.84;21.77;99250.91;5084426;28;20492;-65
2022/05/14 08:13:24;;;;;;;8.95;3.00;;;;;;;34.41;22.11;99257.88;5077566;28;20042;-63
2022/05/14 08:15:50;;;;;;;5.00;1.48;;;;;;;33.67;22.74;99248.50;5087041;28;20043;-66
2022/05/14 08:18:16;;;;;;;2.75;1.00;;;;;;;34.39;23.11;99246.16;5083851;28;20024;-67
2022/05/14 08:20:43;;;;;;;5.72;0.85;;;;;;;35.11;21.90;99240.81;5096603;28;20100;-70
2022/05/14 08:25:56;;;;;;;4.60;1.13;;;;;;;34.81;22.56;99248.72;5084055;28;20085;-64
2022/05/14 08:28:22;;;;;;;4.38;0.93;;;;;;;35.25;21.98;99243.22;5084374;28;20025;-64
2022/05/14 08:30:47;;;;;;;2.67;0.88;;;;;;;35.61;21.54;99228.19;5083898;28;20098;-68
2022/05/14 08:33:13;;;;;;;2.97;1.00;;;;;;;33.41;22.34;99240.34;5086794;28;20020;-67
2022/05/14 08:35:39;;;;;;;2.53;0.70;;;;;;;34.10;22.15;99231.16;5084475;28;20081;-65
2022/05/14 08:38:05;;;;;;;3.53;1.10;;;;;;;33.90;22.35;99243.28;5085624;28;20043;-70
2022/05/14 08:40:36;;;;;;;3.17;0.90;;;;;;;33.79;22.26;99237.31;5091093;28;20034;-70
2022/05/14 08:43:26;;;;;;;5.10;1.05;;;;;;;33.96;23.54;99214.66;5085725;28;20465;-67
2022/05/14 08:45:52;;;;;;;4.88;0.77;;;;;;;33.45;24.02;99218.84;5075133;28;20478;-67
2022/05/14 08:48:30;;;;;;;2.97;0.70;;;;;;;34.46;21.49;99218.31;5087254;28;20027;-67
2022/05/14 08:51:14;;;;;;;2.78;0.95;;;;;;;32.34;22.75;99231.38;5087921;28;20891;-67
2022/05/14 08:53:40;;;;;;;3.25;0.63;;;;;;;33.98;21.42;99211.47;5083091;28;20036;-69
2022/05/14 08:56:21;;;;;;;5.63;0.77;;;;;;;34.83;21.66;99227.50;5071022;28;20016;-69
2022/05/14 08:59:15;;;;;;;2.78;0.63;;;;;;;34.79;20.04;99223.75;5090028;28;20043;-61
2022/05/14 09:01:43;;;;;;;1.95;0.47;;;;;;;34.23;20.52;99215.97;5082395;28;20028;-69
2022/05/14 09:04:10;;;;;;;3.45;0.77;;;;;;;31.91;21.19;99223.94;5086211;28;20032;-69
2022/05/14 09:06:37;;;;;;;4.30;1.00;;;;;;;31.79;21.63;99221.88;5085626;28;20076;-62
2022/05/14 09:09:02;;;;;;;4.43;0.70;;;;;;;29.56;24.61;99229.19;5089303;28;20072;-67
2022/05/14 09:11:37;;;;;;;2.55;0.70;;;;;;;30.22;23.39;99223.78;5080947;28;20028;-67
2022/05/14 09:14:17;;;;;;;5.22;0.70;;;;;;;31.78;21.79;99217.41;5079157;28;20055;-67
2022/05/14 09:16:43;;;;;;;4.90;0.80;;;;;;;32.38;21.64;99219.13;5077498;28;20024;-67
2022/05/14 09:19:17;;;;;;;4.10;0.60;;;;;;;33.09;20.02;99217.50;5085407;28;20024;-67
2022/05/14 09:21:51;;;;;;;4.28;1.05;;;;;;;33.43;21.17;99212.75;5087105;28;20024;-66
2022/05/14 09:24:28;;;;;;;2.78;0.70;;;;;;;34.98;20.30;99209.06;5087464;28;20111;-67
2022/05/14 09:26:56;;;;;;;3.73;0.77;;;;;;;34.11;20.30;99215.94;5090996;28;20073;-66
2022/05/14 09:29:40;;;;;;;3.80;0.60;;;;;;;34.79;20.99;99217.31;5090583;28;20062;-64
2022/05/14 09:32:30;;;;;;;7.22;1.10;;;;;;;34.16;20.53;99217.72;5085935;28;20071;-65
2022/05/14 09:35:21;;;;;;;2.85;0.80;;;;;;;34.11;20.34;99215.94;5072658;28;20089;-65
2022/05/14 09:37:47;;;;;;;5.00;1.25;;;;;;;35.40;20.60;99193.78;5089556;28;20071;-65
2022/05/14 09:40:23;;;;;;;3.90;0.70;;;;;;;34.25;20.40;99199.59;5084002;28;20505;-65
2022/05/14 09:42:52;;;;;;;4.55;1.15;;;;;;;34.86;22.50;99200.66;5092569;28;20028;-65
2022/05/14 09:45:22;;;;;;;2.97;0.73;;;;;;;35.08;21.50;99202.97;5085651;28;20031;-65
2022/05/14 09:47:49;;;;;;;3.05;0.98;;;;;;;34.61;20.35;99199.91;5090148;28;20028;-65
2022/05/14 09:50:29;;;;;;;3.67;0.70;;;;;;;35.15;21.05;99198.72;5089170;28;20028;-66
2022/05/14 09:53:01;;;;;;;3.70;1.10;;;;;;;35.44;20.75;99208.78;5088842;28;20020;-64
2022/05/14 09:55:55;;;;;;;3.60;1.27;;;;;;;34.87;20.53;99199.47;5081820;28;20028;-65
2022/05/14 09:59:02;;;;;;;5.47;1.25;;;;;;;35.47;20.75;99211.69;5059314;28;20122;-65
2022/05/14 10:01:39;;;;;;;2.33;0.77;;;;;;;35.52;20.82;99205.78;4984744;28;20137;-66
2022/05/14 10:04:11;;;;;;;2.60;0.77;;;;;;;35.24;20.94;99207.81;4956311;28;20085;-65
2022/05/14 10:06:59;;;;;;;2.58;1.30;;;;;;;35.62;21.14;99203.66;5036681;28;20036;-65
2022/05/14 10:10:01;;;;;;;1.92;0.80;;;;;;;35.99;19.71;99207.03;5081322;28;20362;-65
2022/05/14 10:12:53;;;;;;;8.05;1.90;;;;;;;35.80;20.28;99199.31;5057452;28;20048;-65
2022/05/14 10:15:32;;;;;;;3.85;0.60;;;;;;;35.24;18.59;99186.16;5090886;28;20052;-66
2022/05/14 10:18:12;;;;;;;2.33;0.57;;;;;;;33.67;19.02;99200.78;5082964;28;20016;-66
2022/05/14 10:21:08;;;;;;;3.20;0.70;;;;;;;33.55;20.29;99201.59;5083111;28;20612;-65
2022/05/14 10:26:47;;;;;;;3.88;0.70;;;;;;;34.74;19.76;99189.44;5084165;28;20117;-66
2022/05/14 10:29:31;;;;;;;2.10;0.68;;;;;;;33.82;18.98;99155.19;5084780;28;20115;-66
2022/05/14 10:32:11;;;;;;;3.30;0.65;;;;;;;35.47;18.55;99191.97;5086714;28;20060;-66
2022/05/14 10:34:45;;;;;;;2.70;0.80;;;;;;;33.97;20.59;99190.19;5080907;28;20032;-66
2022/05/14 10:37:14;;;;;;;3.40;0.63;;;;;;;34.23;19.53;99189.88;5084722;28;20016;-66
2022/05/14 10:40:03;;;;;;;3.35;0.68;;;;;;;34.42;20.24;99181.66;5087545;28;20050;-66
2022/05/14 10:42:57;;;;;;;3.63;0.70;;;;;;;34.43;20.19;99182.50;5087359;28;20032;-66
2022/05/14 10:45:30;;;;;;;2.10;0.75;;;;;;;34.95;19.62;99170.41;5082601;28;20045;-66
2022/05/14 10:48:23;;;;;;;1.48;0.60;;;;;;;35.25;19.46;99178.53;5083810;28;20020;-66
2022/05/14 10:50:48;;;;;;;1.63;0.70;;;;;;;36.08;18.82;99170.25;5085243;28;20036;-65
2022/05/14 10:53:15;;;;;;;1.73;0.60;;;;;;;36.11;18.54;99163.91;5087524;28;20015;-66
2022/05/14 10:55:55;;;;;;;2.28;0.63;;;;;;;35.34;18.91;99167.91;5087651;28;20316;-66
2022/05/14 10:58:39;;;;;;;7.47;0.85;;;;;;;35.04;19.53;99165.44;5081907;28;20054;-66
2022/05/14 11:01:10;;;;;;;2.40;0.60;;;;;;;34.29;19.70;99156.75;5080520;28;20029;-66
2022/05/14 11:03:36;;;;;;;2.35;0.60;;;;;;;34.81;19.86;99164.38;5089120;28;20016;-66
2022/05/14 11:06:01;;;;;;;1.45;0.50;;;;;;;33.37;19.56;99161.66;5088846;28;20020;-66
2022/05/14 11:08:33;;;;;;;0.57;0.30;;;;;;;34.34;20.43;99159.31;5085308;28;20046;-66
2022/05/14 11:11:16;;;;;;;3.08;0.73;;;;;;;35.16;19.77;99155.34;5087761;28;20027;-66
2022/05/14 11:13:54;;;;;;;3.78;0.60;;;;;;;35.58;19.56;99155.75;5082710;28;20197;-66
2022/05/14 11:16:19;;;;;;;;;;;;;;;37.02;17.53;99146.63;5084922;28;20017;-66
2022/05/14 11:18:51;;;;;;;3.90;0.60;;;;;;;36.25;18.21;99141.69;5086500;28;20352;-66
2022/05/14 11:21:18;;;;;;;1.27;0.60;;;;;;;35.33;19.59;99155.03;5093887;28;20018;-66
2022/05/14 11:23:59;;;;;;;2.42;0.43;;;;;;;35.87;19.10;99154.47;5091395;28;20111;-66
2022/05/14 11:26:25;;;;;;;3.00;0.60;;;;;;;34.92;20.07;99154.25;5085296;28;20070;-66
2022/05/14 11:29:00;;;;;;;2.72;0.70;;;;;;;34.63;19.60;99161.84;5083134;28;20075;-66
2022/05/14 11:31:29;;;;;;;2.05;0.65;;;;;;;35.52;18.81;99151.50;5085181;28;20074;-66
2022/05/14 11:33:58;;;;;;;2.05;0.60;;;;;;;35.81;18.96;99150.25;5089510;28;20380;-66
2022/05/14 11:36:28;;;;;;;1.45;0.40;;;;;;;35.81;19.41;99144.63;5088920;28;20024;-66
2022/05/14 11:39:09;;;;;;;2.85;0.50;;;;;;;35.64;19.05;99142.22;5088320;28;20036;-66
2022/05/14 11:41:37;;;;;;;2.03;0.50;;;;;;;35.36;18.57;99143.06;5086722;28;20105;-66
2022/05/14 11:44:06;;;;;;;2.33;0.40;;;;;;;34.66;18.33;99140.63;5088705;28;20035;-69
2022/05/14 11:46:45;;;;;;;1.75;0.50;;;;;;;34.87;18.01;99132.00;5075476;28;20078;-68
2022/05/14 11:49:25;;;;;;;0.88;0.40;;;;;;;34.52;16.33;99145.81;5087126;28;20048;-72
2022/05/14 11:52:08;;;;;;;2.78;0.40;;;;;;;34.47;16.70;99147.69;5087164;28;20385;-70
2022/05/14 11:55:08;;;;;;;1.98;0.50;;;;;;;34.72;16.97;99138.41;5086724;28;20025;-69
2022/05/14 11:57:49;;;;;;;2.17;0.40;;;;;;;34.60;17.76;99142.06;5078443;28;20149;-70
2022/05/14 12:00:17;;;;;;;2.08;0.70;;;;;;;34.20;18.57;99138.03;5091952;28;20497;-69
2022/05/14 12:02:49;;;;;;;2.00;0.60;;;;;;;35.10;18.81;99113.41;5090859;28;20055;-67
2022/05/14 12:05:18;;;;;;;2.13;0.60;;;;;;;35.43;17.62;99134.81;5086618;28;20512;-70